sensor_id;sensor_type;location;lat;lon;timestamp;P1;durP1;ratioP1;P2;durP2;ratioP2
44214;SDS011;29884;47.450;19.124;2024-01-06T00:01:28;17.42;;;7.75;;
44214;SDS011;29884;47.450;19.124;2024-01-06T00:03:54;17.55;;;8.60;;
44214;SDS011;29884;47.450;19.124;2024-01-06T00:06:20;16.73;;;7.78;;
44214;SDS011;29884;47.450;19.124;2024-01-06T00:08:48;14.18;;;7.78;;
44214;SDS011;29884;47.450;19.124;2024-01-06T00:11:22;16.50;;;8.32;;
44214;SDS011;29884;47.450;19.124;2024-01-06T00:13:48;19.80;;;8.35;;
44214;SDS011;29884;47.450;19.124;2024-01-06T00:16:16;18.35;;;8.27;;
44214;SDS011;29884;47.450;19.124;2024-01-06T00:18:43;18.27;;;8.50;;
44214;SDS011;29884;47.450;19.124;2024-01-06T00:21:09;14.93;;;8.15;;
44214;SDS011;29884;47.450;19.124;2024-01-06T00:23:34;19.30;;;8.38;;
44214;SDS011;29884;47.450;19.124;2024-01-06T00:26:00;20.77;;;9.57;;
44214;SDS011;29884;47.450;19.124;2024-01-06T00:28:26;17.83;;;9.50;;
44214;SDS011;29884;47.450;19.124;2024-01-06T00:30:51;16.88;;;8.75;;
44214;SDS011;29884;47.450;19.124;2024-01-06T00:33:17;19.27;;;8.65;;
44214;SDS011;29884;47.450;19.124;2024-01-06T00:35:42;18.08;;;8.85;;
44214;SDS011;29884;47.450;19.124;2024-01-06T00:38:08;18.42;;;9.18;;
44214;SDS011;29884;47.450;19.124;2024-01-06T00:40:33;21.02;;;8.85;;
44214;SDS011;29884;47.450;19.124;2024-01-06T00:42:59;17.48;;;8.68;;
44214;SDS011;29884;47.450;19.124;2024-01-06T00:45:25;19.52;;;9.45;;
44214;SDS011;29884;47.450;19.124;2024-01-06T00:47:50;17.33;;;8.60;;
44214;SDS011;29884;47.450;19.124;2024-01-06T00:50:17;17.27;;;9.35;;
44214;SDS011;29884;47.450;19.124;2024-01-06T00:52:44;17.08;;;8.88;;
44214;SDS011;29884;47.450;19.124;2024-01-06T00:55:09;19.88;;;9.35;;
44214;SDS011;29884;47.450;19.124;2024-01-06T00:57:35;19.65;;;8.88;;
44214;SDS011;29884;47.450;19.124;2024-01-06T01:00:01;19.02;;;9.13;;
44214;SDS011;29884;47.450;19.124;2024-01-06T01:02:28;22.30;;;9.80;;
44214;SDS011;29884;47.450;19.124;2024-01-06T01:04:53;18.52;;;9.30;;
44214;SDS011;29884;47.450;19.124;2024-01-06T01:07:19;20.77;;;9.93;;
44214;SDS011;29884;47.450;19.124;2024-01-06T01:09:45;18.52;;;9.68;;
44214;SDS011;29884;47.450;19.124;2024-01-06T01:12:10;23.08;;;8.88;;
44214;SDS011;29884;47.450;19.124;2024-01-06T01:14:36;18.15;;;9.10;;
44214;SDS011;29884;47.450;19.124;2024-01-06T01:17:01;18.48;;;9.43;;
44214;SDS011;29884;47.450;19.124;2024-01-06T01:19:27;19.75;;;9.07;;
44214;SDS011;29884;47.450;19.124;2024-01-06T01:21:53;19.77;;;9.50;;
44214;SDS011;29884;47.450;19.124;2024-01-06T01:24:20;19.70;;;10.05;;
44214;SDS011;29884;47.450;19.124;2024-01-06T01:26:49;16.88;;;9.55;;
44214;SDS011;29884;47.450;19.124;2024-01-06T01:29:15;18.75;;;9.80;;
44214;SDS011;29884;47.450;19.124;2024-01-06T01:31:41;20.90;;;10.05;;
44214;SDS011;29884;47.450;19.124;2024-01-06T01:34:07;22.63;;;10.57;;
44214;SDS011;29884;47.450;19.124;2024-01-06T01:36:33;18.80;;;9.50;;
44214;SDS011;29884;47.450;19.124;2024-01-06T01:38:58;16.17;;;9.48;;
44214;SDS011;29884;47.450;19.124;2024-01-06T01:41:24;20.27;;;9.77;;
44214;SDS011;29884;47.450;19.124;2024-01-06T01:43:50;16.58;;;9.38;;
44214;SDS011;29884;47.450;19.124;2024-01-06T01:46:22;19.60;;;9.82;;
44214;SDS011;29884;47.450;19.124;2024-01-06T01:48:50;19.58;;;9.75;;
44214;SDS011;29884;47.450;19.124;2024-01-06T01:51:16;17.88;;;8.80;;
44214;SDS011;29884;47.450;19.124;2024-01-06T01:53:43;21.73;;;10.57;;
44214;SDS011;29884;47.450;19.124;2024-01-06T01:56:09;18.10;;;9.55;;
44214;SDS011;29884;47.450;19.124;2024-01-06T01:58:35;17.38;;;9.65;;
44214;SDS011;29884;47.450;19.124;2024-01-06T02:01:02;16.83;;;9.18;;
44214;SDS011;29884;47.450;19.124;2024-01-06T02:03:28;19.77;;;9.25;;
44214;SDS011;29884;47.450;19.124;2024-01-06T02:05:56;17.30;;;9.45;;
44214;SDS011;29884;47.450;19.124;2024-01-06T02:08:21;17.92;;;9.32;;
44214;SDS011;29884;47.450;19.124;2024-01-06T02:10:48;15.05;;;8.38;;
44214;SDS011;29884;47.450;19.124;2024-01-06T02:13:13;16.52;;;8.73;;
44214;SDS011;29884;47.450;19.124;2024-01-06T02:15:39;16.27;;;9.05;;
44214;SDS011;29884;47.450;19.124;2024-01-06T02:18:05;16.35;;;8.93;;
44214;SDS011;29884;47.450;19.124;2024-01-06T02:20:31;16.45;;;8.90;;
44214;SDS011;29884;47.450;19.124;2024-01-06T02:22:56;19.48;;;9.75;;
44214;SDS011;29884;47.450;19.124;2024-01-06T02:25:24;15.10;;;9.07;;
44214;SDS011;29884;47.450;19.124;2024-01-06T02:27:50;17.08;;;9.20;;
44214;SDS011;29884;47.450;19.124;2024-01-06T02:30:15;17.58;;;8.85;;
44214;SDS011;29884;47.450;19.124;2024-01-06T02:32:41;20.92;;;8.98;;
44214;SDS011;29884;47.450;19.124;2024-01-06T02:35:06;15.63;;;8.75;;
44214;SDS011;29884;47.450;19.124;2024-01-06T02:37:32;15.90;;;8.25;;
44214;SDS011;29884;47.450;19.124;2024-01-06T02:39:58;14.18;;;8.20;;
44214;SDS011;29884;47.450;19.124;2024-01-06T02:42:23;16.33;;;8.52;;
44214;SDS011;29884;47.450;19.124;2024-01-06T02:44:50;15.57;;;8.02;;
44214;SDS011;29884;47.450;19.124;2024-01-06T02:47:16;12.95;;;7.50;;
44214;SDS011;29884;47.450;19.124;2024-01-06T02:49:41;14.30;;;7.60;;
44214;SDS011;29884;47.450;19.124;2024-01-06T02:52:07;15.85;;;7.93;;
44214;SDS011;29884;47.450;19.124;2024-01-06T02:54:32;14.38;;;7.70;;
44214;SDS011;29884;47.450;19.124;2024-01-06T02:56:58;15.32;;;7.50;;
44214;SDS011;29884;47.450;19.124;2024-01-06T02:59:24;16.05;;;7.32;;
44214;SDS011;29884;47.450;19.124;2024-01-06T03:01:49;13.63;;;7.65;;
44214;SDS011;29884;47.450;19.124;2024-01-06T03:04:15;16.13;;;7.88;;
44214;SDS011;29884;47.450;19.124;2024-01-06T03:06:40;15.68;;;8.63;;
44214;SDS011;29884;47.450;19.124;2024-01-06T03:09:06;17.50;;;9.30;;
44214;SDS011;29884;47.450;19.124;2024-01-06T03:11:32;19.25;;;9.52;;
44214;SDS011;29884;47.450;19.124;2024-01-06T03:13:58;22.90;;;10.65;;
44214;SDS011;29884;47.450;19.124;2024-01-06T03:16:23;19.00;;;10.40;;
44214;SDS011;29884;47.450;19.124;2024-01-06T03:18:49;18.30;;;9.75;;
44214;SDS011;29884;47.450;19.124;2024-01-06T03:21:18;19.00;;;9.98;;
44214;SDS011;29884;47.450;19.124;2024-01-06T03:24:06;23.25;;;10.60;;
44214;SDS011;29884;47.450;19.124;2024-01-06T03:26:31;20.42;;;10.23;;
44214;SDS011;29884;47.450;19.124;2024-01-06T03:28:58;18.55;;;9.70;;
44214;SDS011;29884;47.450;19.124;2024-01-06T03:31:24;20.20;;;9.60;;
44214;SDS011;29884;47.450;19.124;2024-01-06T03:33:50;17.38;;;9.68;;
44214;SDS011;29884;47.450;19.124;2024-01-06T03:36:18;17.42;;;9.50;;
44214;SDS011;29884;47.450;19.124;2024-01-06T03:38:44;17.88;;;9.63;;
44214;SDS011;29884;47.450;19.124;2024-01-06T03:41:09;19.90;;;10.27;;
44214;SDS011;29884;47.450;19.124;2024-01-06T03:43:35;18.88;;;9.85;;
44214;SDS011;29884;47.450;19.124;2024-01-06T03:46:00;17.92;;;10.05;;
44214;SDS011;29884;47.450;19.124;2024-01-06T03:48:26;18.58;;;9.45;;
44214;SDS011;29884;47.450;19.124;2024-01-06T03:50:52;18.30;;;9.35;;
44214;SDS011;29884;47.450;19.124;2024-01-06T03:53:17;21.02;;;9.95;;
44214;SDS011;29884;47.450;19.124;2024-01-06T03:55:43;18.27;;;9.93;;
44214;SDS011;29884;47.450;19.124;2024-01-06T03:58:08;18.63;;;10.32;;
44214;SDS011;29884;47.450;19.124;2024-01-06T04:00:34;16.67;;;9.43;;
44214;SDS011;29884;47.450;19.124;2024-01-06T04:03:00;19.70;;;9.43;;
44214;SDS011;29884;47.450;19.124;2024-01-06T04:05:25;17.65;;;9.70;;
44214;SDS011;29884;47.450;19.124;2024-01-06T04:07:51;20.30;;;10.25;;
44214;SDS011;29884;47.450;19.124;2024-01-06T04:10:16;17.15;;;9.82;;
44214;SDS011;29884;47.450;19.124;2024-01-06T04:12:42;20.30;;;9.70;;
44214;SDS011;29884;47.450;19.124;2024-01-06T04:15:08;17.65;;;9.32;;
44214;SDS011;29884;47.450;19.124;2024-01-06T04:17:33;17.85;;;9.15;;
44214;SDS011;29884;47.450;19.124;2024-01-06T04:19:59;18.67;;;9.57;;
44214;SDS011;29884;47.450;19.124;2024-01-06T04:22:24;18.83;;;9.73;;
44214;SDS011;29884;47.450;19.124;2024-01-06T04:24:50;16.08;;;9.10;;
44214;SDS011;29884;47.450;19.124;2024-01-06T04:27:16;16.63;;;9.32;;
44214;SDS011;29884;47.450;19.124;2024-01-06T04:29:42;17.92;;;9.05;;
44214;SDS011;29884;47.450;19.124;2024-01-06T04:32:08;20.50;;;10.35;;
44214;SDS011;29884;47.450;19.124;2024-01-06T04:34:33;20.70;;;10.07;;
44214;SDS011;29884;47.450;19.124;2024-01-06T04:36:59;20.08;;;9.65;;
44214;SDS011;29884;47.450;19.124;2024-01-06T04:39:24;16.40;;;9.20;;
44214;SDS011;29884;47.450;19.124;2024-01-06T04:41:50;20.05;;;9.95;;
44214;SDS011;29884;47.450;19.124;2024-01-06T04:44:16;19.50;;;10.15;;
44214;SDS011;29884;47.450;19.124;2024-01-06T04:46:42;20.08;;;9.93;;
44214;SDS011;29884;47.450;19.124;2024-01-06T04:49:08;18.95;;;9.57;;
44214;SDS011;29884;47.450;19.124;2024-01-06T04:51:33;20.15;;;10.00;;
44214;SDS011;29884;47.450;19.124;2024-01-06T04:53:59;19.50;;;9.27;;
44214;SDS011;29884;47.450;19.124;2024-01-06T04:56:24;18.80;;;9.70;;
44214;SDS011;29884;47.450;19.124;2024-01-06T04:58:51;16.48;;;9.05;;
44214;SDS011;29884;47.450;19.124;2024-01-06T05:01:17;21.98;;;10.10;;
44214;SDS011;29884;47.450;19.124;2024-01-06T05:03:42;16.85;;;8.93;;
44214;SDS011;29884;47.450;19.124;2024-01-06T05:06:08;17.90;;;9.13;;
44214;SDS011;29884;47.450;19.124;2024-01-06T05:08:33;18.50;;;9.40;;
44214;SDS011;29884;47.450;19.124;2024-01-06T05:11:03;15.13;;;8.60;;
44214;SDS011;29884;47.450;19.124;2024-01-06T05:13:30;16.90;;;9.15;;
44214;SDS011;29884;47.450;19.124;2024-01-06T05:15:55;17.40;;;8.65;;
44214;SDS011;29884;47.450;19.124;2024-01-06T05:18:21;16.40;;;8.25;;
44214;SDS011;29884;47.450;19.124;2024-01-06T05:20:47;17.20;;;8.63;;
44214;SDS011;29884;47.450;19.124;2024-01-06T05:23:12;16.33;;;8.48;;
44214;SDS011;29884;47.450;19.124;2024-01-06T05:25:38;14.85;;;8.20;;
44214;SDS011;29884;47.450;19.124;2024-01-06T05:28:04;17.20;;;9.35;;
44214;SDS011;29884;47.450;19.124;2024-01-06T05:30:29;13.82;;;7.55;;
44214;SDS011;29884;47.450;19.124;2024-01-06T05:32:55;14.05;;;7.15;;
44214;SDS011;29884;47.450;19.124;2024-01-06T05:35:21;15.90;;;7.63;;
44214;SDS011;29884;47.450;19.124;2024-01-06T05:37:46;13.30;;;7.10;;
44214;SDS011;29884;47.450;19.124;2024-01-06T05:40:12;13.63;;;7.50;;
44214;SDS011;29884;47.450;19.124;2024-01-06T05:42:39;28.60;;;13.57;;
44214;SDS011;29884;47.450;19.124;2024-01-06T05:45:05;20.48;;;11.82;;
44214;SDS011;29884;47.450;19.124;2024-01-06T05:47:31;22.02;;;10.23;;
44214;SDS011;29884;47.450;19.124;2024-01-06T05:49:57;17.48;;;9.10;;
44214;SDS011;29884;47.450;19.124;2024-01-06T05:52:22;13.32;;;7.72;;
44214;SDS011;29884;47.450;19.124;2024-01-06T05:54:48;15.02;;;7.90;;
44214;SDS011;29884;47.450;19.124;2024-01-06T05:57:14;14.85;;;7.45;;
44214;SDS011;29884;47.450;19.124;2024-01-06T05:59:39;15.25;;;7.93;;
44214;SDS011;29884;47.450;19.124;2024-01-06T06:02:05;12.68;;;7.72;;
44214;SDS011;29884;47.450;19.124;2024-01-06T06:04:31;15.38;;;8.45;;
44214;SDS011;29884;47.450;19.124;2024-01-06T06:06:57;15.63;;;8.70;;
44214;SDS011;29884;47.450;19.124;2024-01-06T06:09:22;16.80;;;9.00;;
44214;SDS011;29884;47.450;19.124;2024-01-06T06:11:48;15.23;;;8.07;;
44214;SDS011;29884;47.450;19.124;2024-01-06T06:14:13;14.60;;;8.32;;
44214;SDS011;29884;47.450;19.124;2024-01-06T06:16:39;15.00;;;8.13;;
44214;SDS011;29884;47.450;19.124;2024-01-06T06:19:05;12.77;;;7.90;;
44214;SDS011;29884;47.450;19.124;2024-01-06T06:21:31;15.85;;;8.98;;
44214;SDS011;29884;47.450;19.124;2024-01-06T06:23:56;17.23;;;8.80;;
44214;SDS011;29884;47.450;19.124;2024-01-06T06:26:22;16.77;;;8.88;;
44214;SDS011;29884;47.450;19.124;2024-01-06T06:28:48;15.23;;;8.55;;
44214;SDS011;29884;47.450;19.124;2024-01-06T06:31:13;15.80;;;8.57;;
44214;SDS011;29884;47.450;19.124;2024-01-06T06:33:39;16.95;;;8.77;;
44214;SDS011;29884;47.450;19.124;2024-01-06T06:36:05;15.05;;;8.30;;
44214;SDS011;29884;47.450;19.124;2024-01-06T06:38:31;18.63;;;8.18;;
44214;SDS011;29884;47.450;19.124;2024-01-06T06:40:57;13.20;;;7.90;;
44214;SDS011;29884;47.450;19.124;2024-01-06T06:43:23;16.35;;;8.00;;
44214;SDS011;29884;47.450;19.124;2024-01-06T06:45:48;14.93;;;8.55;;
44214;SDS011;29884;47.450;19.124;2024-01-06T06:48:14;17.23;;;7.50;;
44214;SDS011;29884;47.450;19.124;2024-01-06T06:50:39;14.25;;;7.85;;
44214;SDS011;29884;47.450;19.124;2024-01-06T06:53:06;13.93;;;8.35;;
44214;SDS011;29884;47.450;19.124;2024-01-06T06:55:32;14.23;;;8.15;;
44214;SDS011;29884;47.450;19.124;2024-01-06T06:57:58;16.27;;;8.32;;
44214;SDS011;29884;47.450;19.124;2024-01-06T07:00:23;15.48;;;8.13;;
44214;SDS011;29884;47.450;19.124;2024-01-06T07:02:49;16.70;;;8.32;;
44214;SDS011;29884;47.450;19.124;2024-01-06T07:05:15;15.45;;;9.07;;
44214;SDS011;29884;47.450;19.124;2024-01-06T07:07:40;15.93;;;8.95;;
44214;SDS011;29884;47.450;19.124;2024-01-06T07:10:08;17.35;;;9.55;;
44214;SDS011;29884;47.450;19.124;2024-01-06T07:12:34;18.55;;;8.80;;
44214;SDS011;29884;47.450;19.124;2024-01-06T07:14:59;13.63;;;7.28;;
44214;SDS011;29884;47.450;19.124;2024-01-06T07:17:25;12.95;;;7.57;;
44214;SDS011;29884;47.450;19.124;2024-01-06T07:19:50;19.08;;;8.27;;
44214;SDS011;29884;47.450;19.124;2024-01-06T07:22:16;18.73;;;9.45;;
44214;SDS011;29884;47.450;19.124;2024-01-06T07:24:43;14.80;;;8.27;;
44214;SDS011;29884;47.450;19.124;2024-01-06T07:27:09;16.10;;;7.28;;
44214;SDS011;29884;47.450;19.124;2024-01-06T07:29:34;13.35;;;7.65;;
44214;SDS011;29884;47.450;19.124;2024-01-06T07:32:00;17.70;;;8.70;;
44214;SDS011;29884;47.450;19.124;2024-01-06T07:34:25;16.75;;;9.23;;
44214;SDS011;29884;47.450;19.124;2024-01-06T07:36:51;19.20;;;9.68;;
44214;SDS011;29884;47.450;19.124;2024-01-06T07:39:17;15.70;;;8.30;;
44214;SDS011;29884;47.450;19.124;2024-01-06T07:41:42;16.33;;;7.82;;
44214;SDS011;29884;47.450;19.124;2024-01-06T07:44:08;16.15;;;8.13;;
44214;SDS011;29884;47.450;19.124;2024-01-06T07:46:33;16.63;;;8.07;;
44214;SDS011;29884;47.450;19.124;2024-01-06T07:49:01;17.25;;;7.65;;
44214;SDS011;29884;47.450;19.124;2024-01-06T07:51:27;15.57;;;7.85;;
44214;SDS011;29884;47.450;19.124;2024-01-06T07:53:53;12.10;;;7.65;;
44214;SDS011;29884;47.450;19.124;2024-01-06T07:56:19;15.65;;;8.68;;
44214;SDS011;29884;47.450;19.124;2024-01-06T07:58:44;19.52;;;8.98;;
44214;SDS011;29884;47.450;19.124;2024-01-06T08:01:10;13.27;;;7.78;;
44214;SDS011;29884;47.450;19.124;2024-01-06T08:03:35;13.55;;;7.63;;
44214;SDS011;29884;47.450;19.124;2024-01-06T08:06:01;12.80;;;7.88;;
44214;SDS011;29884;47.450;19.124;2024-01-06T08:08:27;12.25;;;7.38;;
44214;SDS011;29884;47.450;19.124;2024-01-06T08:10:53;15.80;;;7.97;;
44214;SDS011;29884;47.450;19.124;2024-01-06T08:13:19;13.35;;;7.53;;
44214;SDS011;29884;47.450;19.124;2024-01-06T08:15:44;14.48;;;8.05;;
44214;SDS011;29884;47.450;19.124;2024-01-06T08:18:10;15.07;;;7.85;;
44214;SDS011;29884;47.450;19.124;2024-01-06T08:20:35;13.52;;;7.82;;
44214;SDS011;29884;47.450;19.124;2024-01-06T08:23:01;13.80;;;7.50;;
44214;SDS011;29884;47.450;19.124;2024-01-06T08:25:27;12.70;;;7.47;;
44214;SDS011;29884;47.450;19.124;2024-01-06T08:27:52;15.85;;;7.28;;
44214;SDS011;29884;47.450;19.124;2024-01-06T08:30:18;11.23;;;7.10;;
44214;SDS011;29884;47.450;19.124;2024-01-06T08:32:44;13.27;;;7.13;;
44214;SDS011;29884;47.450;19.124;2024-01-06T08:35:10;12.20;;;6.63;;
44214;SDS011;29884;47.450;19.124;2024-01-06T08:37:35;11.65;;;7.10;;
44214;SDS011;29884;47.450;19.124;2024-01-06T08:40:01;12.27;;;7.05;;
44214;SDS011;29884;47.450;19.124;2024-01-06T08:42:28;14.98;;;7.72;;
44214;SDS011;29884;47.450;19.124;2024-01-06T08:44:53;19.08;;;8.25;;
44214;SDS011;29884;47.450;19.124;2024-01-06T08:47:19;13.52;;;7.10;;
44214;SDS011;29884;47.450;19.124;2024-01-06T08:49:44;12.80;;;7.22;;
44214;SDS011;29884;47.450;19.124;2024-01-06T08:52:10;13.10;;;6.63;;
44214;SDS011;29884;47.450;19.124;2024-01-06T08:54:36;12.13;;;6.18;;
44214;SDS011;29884;47.450;19.124;2024-01-06T08:57:01;11.80;;;6.78;;
44214;SDS011;29884;47.450;19.124;2024-01-06T08:59:27;12.57;;;6.10;;
44214;SDS011;29884;47.450;19.124;2024-01-06T09:01:52;11.60;;;5.93;;
44214;SDS011;29884;47.450;19.124;2024-01-06T09:04:18;12.43;;;6.20;;
44214;SDS011;29884;47.450;19.124;2024-01-06T09:06:56;11.18;;;6.40;;
44214;SDS011;29884;47.450;19.124;2024-01-06T09:09:22;9.20;;;5.28;;
44214;SDS011;29884;47.450;19.124;2024-01-06T09:11:51;11.15;;;5.10;;
44214;SDS011;29884;47.450;19.124;2024-01-06T09:14:17;9.40;;;6.03;;
44214;SDS011;29884;47.450;19.124;2024-01-06T09:16:43;11.77;;;5.60;;
44214;SDS011;29884;47.450;19.124;2024-01-06T09:19:09;8.95;;;5.63;;
44214;SDS011;29884;47.450;19.124;2024-01-06T09:21:34;14.35;;;5.93;;
44214;SDS011;29884;47.450;19.124;2024-01-06T09:24:00;9.65;;;5.25;;
44214;SDS011;29884;47.450;19.124;2024-01-06T09:26:31;8.80;;;4.85;;
44214;SDS011;29884;47.450;19.124;2024-01-06T09:28:57;9.05;;;5.43;;
44214;SDS011;29884;47.450;19.124;2024-01-06T09:31:22;10.73;;;5.57;;
44214;SDS011;29884;47.450;19.124;2024-01-06T09:33:48;10.93;;;5.13;;
44214;SDS011;29884;47.450;19.124;2024-01-06T09:36:14;11.35;;;5.28;;
44214;SDS011;29884;47.450;19.124;2024-01-06T09:38:40;9.75;;;5.82;;
44214;SDS011;29884;47.450;19.124;2024-01-06T09:41:06;10.52;;;5.93;;
44214;SDS011;29884;47.450;19.124;2024-01-06T09:43:31;14.48;;;5.80;;
44214;SDS011;29884;47.450;19.124;2024-01-06T09:46:06;10.27;;;5.75;;
44214;SDS011;29884;47.450;19.124;2024-01-06T09:48:46;11.80;;;6.20;;
44214;SDS011;29884;47.450;19.124;2024-01-06T09:51:16;12.25;;;5.72;;
44214;SDS011;29884;47.450;19.124;2024-01-06T09:53:48;11.73;;;6.22;;
44214;SDS011;29884;47.450;19.124;2024-01-06T09:56:19;11.85;;;6.22;;
44214;SDS011;29884;47.450;19.124;2024-01-06T09:58:45;14.88;;;6.20;;
44214;SDS011;29884;47.450;19.124;2024-01-06T10:01:11;11.07;;;6.32;;
44214;SDS011;29884;47.450;19.124;2024-01-06T10:03:39;12.02;;;6.63;;
44214;SDS011;29884;47.450;19.124;2024-01-06T10:06:05;10.63;;;6.05;;
44214;SDS011;29884;47.450;19.124;2024-01-06T10:08:31;12.48;;;6.60;;
44214;SDS011;29884;47.450;19.124;2024-01-06T10:10:59;14.20;;;6.55;;
44214;SDS011;29884;47.450;19.124;2024-01-06T10:13:25;11.10;;;6.05;;
44214;SDS011;29884;47.450;19.124;2024-01-06T10:15:50;11.90;;;6.63;;
44214;SDS011;29884;47.450;19.124;2024-01-06T10:18:16;11.40;;;6.25;;
44214;SDS011;29884;47.450;19.124;2024-01-06T10:20:46;10.85;;;6.40;;
44214;SDS011;29884;47.450;19.124;2024-01-06T10:23:12;11.10;;;5.90;;
44214;SDS011;29884;47.450;19.124;2024-01-06T10:25:38;9.77;;;5.85;;
44214;SDS011;29884;47.450;19.124;2024-01-06T10:28:05;10.15;;;6.22;;
44214;SDS011;29884;47.450;19.124;2024-01-06T10:30:31;12.43;;;6.35;;
44214;SDS011;29884;47.450;19.124;2024-01-06T10:32:56;12.93;;;6.93;;
44214;SDS011;29884;47.450;19.124;2024-01-06T10:35:23;10.95;;;6.47;;
44214;SDS011;29884;47.450;19.124;2024-01-06T10:37:54;11.18;;;6.15;;
44214;SDS011;29884;47.450;19.124;2024-01-06T10:40:23;11.13;;;5.80;;
44214;SDS011;29884;47.450;19.124;2024-01-06T10:42:48;12.45;;;6.05;;
44214;SDS011;29884;47.450;19.124;2024-01-06T10:45:14;10.48;;;6.13;;
44214;SDS011;29884;47.450;19.124;2024-01-06T10:47:41;10.90;;;6.22;;
44214;SDS011;29884;47.450;19.124;2024-01-06T10:50:11;12.27;;;6.55;;
44214;SDS011;29884;47.450;19.124;2024-01-06T10:52:46;15.15;;;8.90;;
44214;SDS011;29884;47.450;19.124;2024-01-06T10:55:13;14.60;;;8.30;;
44214;SDS011;29884;47.450;19.124;2024-01-06T10:57:45;12.82;;;6.95;;
44214;SDS011;29884;47.450;19.124;2024-01-06T11:00:11;15.40;;;8.13;;
44214;SDS011;29884;47.450;19.124;2024-01-06T11:02:48;14.90;;;7.57;;
44214;SDS011;29884;47.450;19.124;2024-01-06T11:05:17;12.80;;;7.47;;
44214;SDS011;29884;47.450;19.124;2024-01-06T11:07:43;11.88;;;7.28;;
44214;SDS011;29884;47.450;19.124;2024-01-06T11:10:14;12.38;;;6.28;;
44214;SDS011;29884;47.450;19.124;2024-01-06T11:12:42;11.15;;;6.78;;
44214;SDS011;29884;47.450;19.124;2024-01-06T11:15:08;12.75;;;6.65;;
44214;SDS011;29884;47.450;19.124;2024-01-06T11:17:52;12.65;;;6.68;;
44214;SDS011;29884;47.450;19.124;2024-01-06T11:20:22;12.38;;;6.68;;
44214;SDS011;29884;47.450;19.124;2024-01-06T11:22:48;11.32;;;7.28;;
44214;SDS011;29884;47.450;19.124;2024-01-06T11:25:15;10.68;;;6.57;;
44214;SDS011;29884;47.450;19.124;2024-01-06T11:27:46;11.25;;;6.95;;
44214;SDS011;29884;47.450;19.124;2024-01-06T11:30:23;15.07;;;7.57;;
44214;SDS011;29884;47.450;19.124;2024-01-06T11:32:53;13.55;;;7.75;;
44214;SDS011;29884;47.450;19.124;2024-01-06T11:35:24;11.85;;;7.45;;
44214;SDS011;29884;47.450;19.124;2024-01-06T11:37:52;13.93;;;7.35;;
44214;SDS011;29884;47.450;19.124;2024-01-06T11:40:32;10.35;;;6.07;;
44214;SDS011;29884;47.450;19.124;2024-01-06T11:43:03;12.30;;;7.03;;
44214;SDS011;29884;47.450;19.124;2024-01-06T11:45:30;10.18;;;6.20;;
44214;SDS011;29884;47.450;19.124;2024-01-06T11:48:04;11.55;;;6.28;;
44214;SDS011;29884;47.450;19.124;2024-01-06T11:50:31;13.00;;;6.63;;
44214;SDS011;29884;47.450;19.124;2024-01-06T11:52:58;12.32;;;7.00;;
44214;SDS011;29884;47.450;19.124;2024-01-06T11:55:27;11.82;;;6.72;;
44214;SDS011;29884;47.450;19.124;2024-01-06T11:57:54;13.55;;;6.63;;
44214;SDS011;29884;47.450;19.124;2024-01-06T12:00:21;10.43;;;6.93;;
44214;SDS011;29884;47.450;19.124;2024-01-06T12:02:47;10.10;;;6.57;;
44214;SDS011;29884;47.450;19.124;2024-01-06T12:05:14;12.88;;;7.20;;
44214;SDS011;29884;47.450;19.124;2024-01-06T12:07:41;10.85;;;6.50;;
44214;SDS011;29884;47.450;19.124;2024-01-06T12:10:09;10.30;;;6.45;;
44214;SDS011;29884;47.450;19.124;2024-01-06T12:12:36;10.93;;;6.90;;
44214;SDS011;29884;47.450;19.124;2024-01-06T12:15:02;12.65;;;6.28;;
44214;SDS011;29884;47.450;19.124;2024-01-06T12:17:30;9.40;;;6.45;;
44214;SDS011;29884;47.450;19.124;2024-01-06T12:19:56;9.98;;;6.35;;
44214;SDS011;29884;47.450;19.124;2024-01-06T12:22:22;9.55;;;6.20;;
44214;SDS011;29884;47.450;19.124;2024-01-06T12:24:50;11.32;;;6.22;;
44214;SDS011;29884;47.450;19.124;2024-01-06T12:27:16;12.02;;;6.53;;
44214;SDS011;29884;47.450;19.124;2024-01-06T12:29:43;10.18;;;6.13;;
44214;SDS011;29884;47.450;19.124;2024-01-06T12:32:09;11.38;;;5.80;;
44214;SDS011;29884;47.450;19.124;2024-01-06T12:34:35;9.57;;;5.93;;
44214;SDS011;29884;47.450;19.124;2024-01-06T12:37:01;9.55;;;6.00;;
44214;SDS011;29884;47.450;19.124;2024-01-06T12:39:28;8.82;;;5.63;;
44214;SDS011;29884;47.450;19.124;2024-01-06T12:41:55;11.20;;;6.72;;
44214;SDS011;29884;47.450;19.124;2024-01-06T12:44:21;9.50;;;6.20;;
44214;SDS011;29884;47.450;19.124;2024-01-06T12:46:47;11.43;;;6.70;;
44214;SDS011;29884;47.450;19.124;2024-01-06T12:49:13;11.68;;;7.00;;
44214;SDS011;29884;47.450;19.124;2024-01-06T12:51:39;9.65;;;6.63;;
44214;SDS011;29884;47.450;19.124;2024-01-06T12:54:04;12.75;;;6.70;;
44214;SDS011;29884;47.450;19.124;2024-01-06T12:56:30;10.48;;;6.70;;
44214;SDS011;29884;47.450;19.124;2024-01-06T12:58:56;11.32;;;6.93;;
44214;SDS011;29884;47.450;19.124;2024-01-06T13:01:21;10.65;;;6.50;;
44214;SDS011;29884;47.450;19.124;2024-01-06T13:03:47;10.45;;;6.63;;
44214;SDS011;29884;47.450;19.124;2024-01-06T13:06:13;9.73;;;6.35;;
44214;SDS011;29884;47.450;19.124;2024-01-06T13:08:40;10.63;;;6.82;;
44214;SDS011;29884;47.450;19.124;2024-01-06T13:11:06;11.82;;;6.20;;
44214;SDS011;29884;47.450;19.124;2024-01-06T13:13:32;12.35;;;6.85;;
44214;SDS011;29884;47.450;19.124;2024-01-06T13:15:58;10.13;;;6.22;;
44214;SDS011;29884;47.450;19.124;2024-01-06T13:18:24;12.07;;;6.65;;
44214;SDS011;29884;47.450;19.124;2024-01-06T13:20:50;10.15;;;6.25;;
44214;SDS011;29884;47.450;19.124;2024-01-06T13:23:15;13.20;;;6.93;;
44214;SDS011;29884;47.450;19.124;2024-01-06T13:25:41;11.65;;;6.78;;
44214;SDS011;29884;47.450;19.124;2024-01-06T13:28:07;11.18;;;6.22;;
44214;SDS011;29884;47.450;19.124;2024-01-06T13:30:33;11.68;;;6.82;;
44214;SDS011;29884;47.450;19.124;2024-01-06T13:32:59;12.25;;;6.88;;
44214;SDS011;29884;47.450;19.124;2024-01-06T13:35:25;11.95;;;6.88;;
44214;SDS011;29884;47.450;19.124;2024-01-06T13:37:54;10.65;;;6.63;;
44214;SDS011;29884;47.450;19.124;2024-01-06T13:40:23;9.20;;;5.93;;
44214;SDS011;29884;47.450;19.124;2024-01-06T13:42:49;12.80;;;6.22;;
44214;SDS011;29884;47.450;19.124;2024-01-06T13:45:16;11.05;;;6.75;;
44214;SDS011;29884;47.450;19.124;2024-01-06T13:47:42;11.73;;;6.65;;
44214;SDS011;29884;47.450;19.124;2024-01-06T13:50:09;11.63;;;6.90;;
44214;SDS011;29884;47.450;19.124;2024-01-06T13:52:42;13.20;;;6.97;;
44214;SDS011;29884;47.450;19.124;2024-01-06T13:55:08;9.70;;;6.13;;
44214;SDS011;29884;47.450;19.124;2024-01-06T13:57:35;11.77;;;7.25;;
44214;SDS011;29884;47.450;19.124;2024-01-06T14:00:02;12.57;;;6.68;;
44214;SDS011;29884;47.450;19.124;2024-01-06T14:02:29;12.82;;;6.78;;
44214;SDS011;29884;47.450;19.124;2024-01-06T14:04:55;12.43;;;7.28;;
44214;SDS011;29884;47.450;19.124;2024-01-06T14:07:21;13.77;;;7.35;;
44214;SDS011;29884;47.450;19.124;2024-01-06T14:09:47;15.00;;;8.02;;
44214;SDS011;29884;47.450;19.124;2024-01-06T14:12:13;11.93;;;7.30;;
44214;SDS011;29884;47.450;19.124;2024-01-06T14:14:39;11.00;;;7.03;;
44214;SDS011;29884;47.450;19.124;2024-01-06T14:17:08;11.48;;;6.88;;